KSYR/SYR METAR and TAF weather

Enter ICAO airport designator
Station Type Date Time Source
KSYR METAR 2020/04/06 16:54 UTC NOAA

KSYR 061654Z 28008KT 240V310 10SM FEW200 SCT250 12/M05 A3009 RMK AO2 SLP189 T01221050


Station Type Date Time Source
KSYR Decoded METAR 2020/04/06 16:54 UTC NOAA

SYRACUSE HANCOCK INTERNATIONAL AIRPORT , NY, United States (KSYR) 43-07N 76-06W 127M
Apr 06, 2020 - 12:54 PM EDT / 2020.04.06 1654 UTC
Wind: from the W (280 degrees) at 9 MPH (8 KT) (direction variable):0
Visibility: 10 mile(s):0
Sky conditions: partly cloudy
Temperature: 54.0 F (12.2 C)
Dew Point: 23.0 F (-5.0 C)
Relative Humidity: 29%
Pressure (altimeter): 30.09 in. Hg (1018 hPa)
ob: KSYR 061654Z 28008KT 240V310 10SM FEW200 SCT250 12/M05 A3009 RMK AO2 SLP189 T01221050
cycle: 17

Station Type Date Time Source
KSYR TAF 2020/04/06 18:22 UTC NOAA

TAF KSYR 061720Z 0618/0718 29008G17KT P6SM FEW250
FM062300 29007KT P6SM BKN120
FM070300 24003KT P6SM BKN080
FM071400 29005KT P6SM SCT100

Example: see airport list